createdAt,value
2019-05-10T00:00:58.632Z,18.80
2019-05-10T00:02:19.835Z,19.27
2019-05-10T00:03:41.555Z,17.40
2019-05-10T00:05:03.163Z,15.97
2019-05-10T00:06:26.810Z,15.97
2019-05-10T00:07:48.896Z,14.70
2019-05-10T00:08:53.578Z,14.87
2019-05-10T00:09:56.539Z,12.67
2019-05-10T00:11:05.166Z,14.17
2019-05-10T00:12:13.671Z,16.93
2019-05-10T00:13:24.944Z,14.40
2019-05-10T00:14:45.846Z,15.70
2019-05-10T00:15:49.681Z,13.97
2019-05-10T00:16:54.952Z,12.00
2019-05-10T00:18:00.259Z,12.87
2019-05-10T00:19:03.891Z,12.03
2019-05-10T00:20:08.493Z,12.20
2019-05-10T00:21:12.144Z,12.07
2019-05-10T00:22:16.039Z,12.33
2019-05-10T00:23:19.685Z,12.50
2019-05-10T00:24:23.536Z,14.73
2019-05-10T00:25:27.197Z,14.43
2019-05-10T00:26:31.013Z,13.37
2019-05-10T00:27:34.681Z,14.00
2019-05-10T00:28:38.550Z,15.20
2019-05-10T00:29:42.360Z,14.33
2019-05-10T00:30:46.326Z,14.10
2019-05-10T00:31:49.961Z,12.53
2019-05-10T00:32:53.714Z,13.33
2019-05-10T00:33:57.368Z,15.47
2019-05-10T00:35:01.176Z,13.50
2019-05-10T00:36:04.914Z,12.53
2019-05-10T00:37:08.752Z,11.60
2019-05-10T00:38:12.380Z,11.37
2019-05-10T00:39:19.378Z,10.27
2019-05-10T00:40:21.627Z,11.57
2019-05-10T00:41:25.489Z,15.17
2019-05-10T00:42:29.144Z,11.27
2019-05-10T00:43:33.019Z,10.47
2019-05-10T00:44:36.572Z,12.83
2019-05-10T00:45:40.726Z,10.47
2019-05-10T00:46:44.735Z,12.03
2019-05-10T00:47:48.551Z,11.53
2019-05-10T00:48:52.298Z,11.57
2019-05-10T00:49:56.530Z,16.63
2019-05-10T00:51:00.162Z,13.00
2019-05-10T00:52:04.023Z,16.40
2019-05-10T00:53:07.849Z,12.30
2019-05-10T00:54:11.696Z,13.07
2019-05-10T00:55:19.061Z,10.53
2019-05-10T00:56:21.036Z,12.33
2019-05-10T00:57:24.643Z,13.27
2019-05-10T00:58:28.473Z,13.70
2019-05-10T00:59:32.204Z,13.37
2019-05-10T01:00:36.041Z,12.03
2019-05-10T01:01:39.677Z,13.10
2019-05-10T01:02:43.548Z,13.37
2019-05-10T01:03:47.130Z,15.23
2019-05-10T01:04:50.965Z,15.37
2019-05-10T01:05:54.681Z,12.33
2019-05-10T01:06:58.565Z,13.03
2019-05-10T01:08:02.314Z,15.20
2019-05-10T01:09:07.127Z,14.13
2019-05-10T01:10:11.057Z,14.00
2019-05-10T01:11:14.885Z,14.23
2019-05-10T01:12:18.568Z,14.20
2019-05-10T01:13:22.398Z,14.37
2019-05-10T01:14:26.159Z,14.70
2019-05-10T01:15:30.059Z,14.97
2019-05-10T01:16:33.700Z,14.13
2019-05-10T01:17:37.550Z,15.00
2019-05-10T01:18:41.247Z,13.63
2019-05-10T01:19:45.239Z,14.30
2019-05-10T01:20:49.152Z,15.47
2019-05-10T01:21:53.012Z,17.10
2019-05-10T01:22:56.648Z,19.83
2019-05-10T01:24:00.507Z,22.17
2019-05-10T01:25:05.557Z,25.33
2019-05-10T01:26:09.407Z,26.33
2019-05-10T01:27:13.064Z,25.87
2019-05-10T01:28:16.875Z,27.63
2019-05-10T01:29:20.564Z,26.97
2019-05-10T01:30:24.394Z,25.20
2019-05-10T01:31:28.177Z,24.37
2019-05-10T01:32:32.022Z,25.90
2019-05-10T01:33:35.646Z,26.60
2019-05-10T01:34:39.502Z,31.40
2019-05-10T01:35:43.165Z,29.13
2019-05-10T01:36:46.932Z,31.80
2019-05-10T01:37:50.562Z,31.57
2019-05-10T01:38:54.413Z,30.23
2019-05-10T01:39:58.008Z,34.43
2019-05-10T01:41:02.238Z,32.97
2019-05-10T01:42:05.970Z,31.00
2019-05-10T01:43:09.796Z,33.00
2019-05-10T01:44:13.866Z,32.23
2019-05-10T01:45:18.121Z,33.60
2019-05-10T01:46:21.749Z,29.57
2019-05-10T01:47:25.594Z,30.53
2019-05-10T01:48:29.620Z,31.13
2019-05-10T01:49:33.785Z,29.23
2019-05-10T01:50:37.665Z,32.87
2019-05-10T01:51:41.502Z,35.87
2019-05-10T01:52:45.133Z,31.90
2019-05-10T01:53:49.313Z,34.53
2019-05-10T01:54:53.050Z,33.63
2019-05-10T01:55:56.909Z,30.97
2019-05-10T01:57:00.644Z,29.97
2019-05-10T01:58:04.543Z,29.63
2019-05-10T01:59:08.183Z,27.23
2019-05-10T02:00:12.414Z,31.73
2019-05-10T02:01:16.112Z,24.20
2019-05-10T02:02:20.037Z,28.73
2019-05-10T02:03:23.660Z,31.93
2019-05-10T02:04:27.940Z,33.03
2019-05-10T02:05:31.946Z,32.37
2019-05-10T02:06:35.808Z,33.57
2019-05-10T02:07:39.531Z,38.73
2019-05-10T02:08:43.424Z,38.03
2019-05-10T02:09:47.057Z,36.83
2019-05-10T02:10:50.919Z,27.40
2019-05-10T02:11:54.942Z,19.93
2019-05-10T02:12:58.761Z,21.47
2019-05-10T02:14:02.569Z,17.63
2019-05-10T02:15:08.354Z,14.53
2019-05-10T02:16:11.989Z,15.27
2019-05-10T02:17:15.948Z,21.33
2019-05-10T02:18:19.573Z,25.50
2019-05-10T02:19:23.642Z,48.03
2019-05-10T02:20:27.304Z,52.90
2019-05-10T02:21:31.123Z,48.63
2019-05-10T02:22:34.914Z,46.50
2019-05-10T02:23:38.758Z,43.07
2019-05-10T02:24:42.327Z,29.60
2019-05-10T02:25:46.153Z,24.30
2019-05-10T02:26:49.895Z,23.77
2019-05-10T02:27:53.787Z,25.40
2019-05-10T02:28:57.432Z,24.37
2019-05-10T02:30:01.385Z,23.77
2019-05-10T02:31:05.013Z,20.57
2019-05-10T02:32:08.835Z,20.10
2019-05-10T02:33:12.566Z,19.03
2019-05-10T02:34:16.873Z,19.50
2019-05-10T02:35:20.505Z,18.20
2019-05-10T02:36:24.330Z,16.83
2019-05-10T02:37:28.055Z,18.37
2019-05-10T02:38:32.020Z,17.80
2019-05-10T02:39:35.747Z,18.20
2019-05-10T02:40:39.643Z,17.53
2019-05-10T02:41:43.294Z,17.47
2019-05-10T02:42:47.109Z,15.20
2019-05-10T02:43:50.861Z,17.50
2019-05-10T02:44:54.818Z,15.83
2019-05-10T02:45:58.459Z,14.90
2019-05-10T02:47:02.314Z,15.70
2019-05-10T02:48:05.975Z,16.80
2019-05-10T02:49:09.823Z,16.63
2019-05-10T02:50:13.711Z,15.97
2019-05-10T02:51:17.597Z,18.20
2019-05-10T02:52:21.295Z,16.10
2019-05-10T02:53:25.723Z,16.30
2019-05-10T02:54:29.582Z,17.97
2019-05-10T02:55:35.112Z,17.20
2019-05-10T02:56:39.847Z,17.70
2019-05-10T02:57:44.774Z,17.90
2019-05-10T02:58:51.153Z,17.63
2019-05-10T02:59:56.012Z,17.30
2019-05-10T03:01:05.472Z,17.87
2019-05-10T03:02:09.291Z,19.93
2019-05-10T03:03:13.074Z,20.73
2019-05-10T03:04:16.894Z,19.30
2019-05-10T03:05:20.684Z,20.37
2019-05-10T03:06:27.013Z,20.17
2019-05-10T03:07:33.395Z,21.57
2019-05-10T03:08:48.493Z,19.40
2019-05-10T03:09:53.049Z,18.03
2019-05-10T03:10:58.347Z,16.93
2019-05-10T03:12:13.386Z,16.87
2019-05-10T03:13:19.885Z,17.97
2019-05-10T03:14:26.660Z,19.13
2019-05-10T03:15:33.389Z,20.10
2019-05-10T03:16:39.485Z,34.03
2019-05-10T03:17:43.328Z,28.87
2019-05-10T03:18:49.164Z,25.77
2019-05-10T03:19:54.543Z,21.63
2019-05-10T03:21:00.599Z,25.27
2019-05-10T03:22:06.426Z,16.83
2019-05-10T03:23:13.325Z,18.30
2019-05-10T03:24:17.154Z,16.40
2019-05-10T03:25:20.792Z,18.37
2019-05-10T03:26:24.640Z,22.47
2019-05-10T03:27:28.326Z,29.13
2019-05-10T03:28:32.127Z,32.43
2019-05-10T03:29:36.117Z,34.03
2019-05-10T03:30:39.942Z,31.43
2019-05-10T03:31:43.676Z,31.73
2019-05-10T03:32:47.605Z,30.83
2019-05-10T03:33:56.409Z,33.30
2019-05-10T03:34:56.865Z,28.40
2019-05-10T03:36:00.528Z,25.57
2019-05-10T03:37:04.570Z,25.57
2019-05-10T03:38:08.335Z,24.43
2019-05-10T03:39:12.294Z,22.93
2019-05-10T03:40:16.582Z,21.73
2019-05-10T03:41:20.505Z,21.50
2019-05-10T03:42:24.397Z,22.23
2019-05-10T03:43:28.380Z,24.30
2019-05-10T03:44:32.024Z,22.20
2019-05-10T03:45:36.221Z,23.40
2019-05-10T03:46:39.889Z,17.60
2019-05-10T03:47:43.723Z,20.73
2019-05-10T03:48:47.493Z,20.53
2019-05-10T03:49:51.379Z,21.20
2019-05-10T03:50:55.394Z,18.53
2019-05-10T03:51:59.214Z,18.00
2019-05-10T03:53:03.082Z,18.57
2019-05-10T03:54:06.982Z,18.87
2019-05-10T03:55:10.820Z,17.17
2019-05-10T03:56:14.658Z,20.77
2019-05-10T03:57:18.722Z,21.70
2019-05-10T03:58:22.902Z,20.17
2019-05-10T03:59:26.901Z,20.90
2019-05-10T04:00:30.868Z,18.70
2019-05-10T04:01:34.548Z,22.73
2019-05-10T04:02:38.734Z,19.10
2019-05-10T04:03:42.366Z,20.13
2019-05-10T04:04:46.262Z,21.97
2019-05-10T04:05:49.915Z,19.50
2019-05-10T04:06:53.767Z,19.77
2019-05-10T04:07:57.418Z,20.97
2019-05-10T04:09:01.341Z,22.50
2019-05-10T04:10:06.340Z,18.97
2019-05-10T04:11:10.250Z,22.67
2019-05-10T04:12:13.909Z,20.67
2019-05-10T04:13:17.758Z,19.87
2019-05-10T04:14:22.566Z,20.63
2019-05-10T04:15:26.466Z,21.27
2019-05-10T04:16:30.094Z,28.07
2019-05-10T04:17:34.384Z,18.67
2019-05-10T04:18:38.022Z,16.20
2019-05-10T04:19:43.298Z,18.37
2019-05-10T04:20:49.929Z,16.17
2019-05-10T04:21:53.749Z,15.50
2019-05-10T04:22:57.420Z,18.70
2019-05-10T04:24:01.246Z,16.43
2019-05-10T04:25:06.001Z,15.03
2019-05-10T04:26:13.855Z,19.07
2019-05-10T04:27:31.372Z,16.77
2019-05-10T04:28:28.812Z,18.43
2019-05-10T04:29:32.499Z,15.30
2019-05-10T04:30:36.325Z,16.83
2019-05-10T04:31:40.086Z,16.37
2019-05-10T04:32:45.181Z,14.90
2019-05-10T04:33:48.786Z,17.17
2019-05-10T04:34:52.720Z,15.80
2019-05-10T04:35:56.373Z,16.37
2019-05-10T04:37:00.562Z,14.83
2019-05-10T04:38:04.225Z,22.00
2019-05-10T04:39:10.971Z,20.07
2019-05-10T04:40:15.018Z,15.57
2019-05-10T04:41:18.944Z,17.27
2019-05-10T04:42:22.635Z,15.50
2019-05-10T04:43:26.774Z,15.87
2019-05-10T04:44:30.444Z,18.10
2019-05-10T04:45:34.339Z,14.87
2019-05-10T04:46:43.021Z,15.13
2019-05-10T04:47:47.190Z,13.93
2019-05-10T04:48:50.837Z,15.13
2019-05-10T04:49:54.667Z,13.97
2019-05-10T04:50:58.301Z,13.47
2019-05-10T04:52:04.356Z,16.00
2019-05-10T04:53:09.282Z,16.27
2019-05-10T04:54:13.086Z,12.97
2019-05-10T04:55:16.805Z,14.40
2019-05-10T04:56:22.190Z,13.13
2019-05-10T04:57:25.927Z,15.03
2019-05-10T04:58:29.768Z,13.73
2019-05-10T04:59:33.427Z,15.27
2019-05-10T05:00:37.326Z,17.03
2019-05-10T05:01:41.005Z,19.23
2019-05-10T05:02:44.950Z,20.07
2019-05-10T05:03:48.590Z,21.10
2019-05-10T05:04:52.433Z,20.20
2019-05-10T05:05:56.191Z,20.87
2019-05-10T05:07:00.013Z,16.93
2019-05-10T05:08:06.313Z,22.33
2019-05-10T05:09:09.405Z,22.50
2019-05-10T05:10:13.270Z,22.23
2019-05-10T05:11:17.529Z,19.00
2019-05-10T05:12:21.539Z,21.67
2019-05-10T05:13:25.417Z,21.53
2019-05-10T05:14:29.107Z,21.67
2019-05-10T05:15:32.941Z,21.83
2019-05-10T05:16:36.601Z,20.97
2019-05-10T05:17:40.844Z,21.27
2019-05-10T05:18:44.588Z,20.73
2019-05-10T05:19:48.417Z,22.17
2019-05-10T05:20:52.191Z,21.33
2019-05-10T05:21:56.027Z,22.23
2019-05-10T05:22:59.601Z,22.87
2019-05-10T05:24:03.566Z,23.30
2019-05-10T05:25:10.767Z,21.33
2019-05-10T05:26:15.012Z,21.00
2019-05-10T05:27:20.551Z,22.77
2019-05-10T05:28:24.748Z,19.87
2019-05-10T05:29:28.514Z,20.17
2019-05-10T05:30:32.496Z,20.67
2019-05-10T05:31:36.577Z,21.90
2019-05-10T05:32:44.462Z,19.90
2019-05-10T05:33:45.795Z,22.23
2019-05-10T05:34:49.639Z,21.33
2019-05-10T05:35:53.280Z,19.13
2019-05-10T05:36:57.579Z,21.03
2019-05-10T05:38:01.328Z,20.00
2019-05-10T05:39:07.041Z,19.23
2019-05-10T05:40:11.600Z,19.00
2019-05-10T05:41:15.450Z,19.00
2019-05-10T05:42:22.301Z,21.07
2019-05-10T05:43:24.702Z,18.13
2019-05-10T05:44:28.352Z,19.00
2019-05-10T05:45:34.083Z,19.90
2019-05-10T05:46:37.603Z,19.13
2019-05-10T05:47:42.304Z,23.13
2019-05-10T05:48:46.848Z,19.37
2019-05-10T05:49:50.756Z,18.07
2019-05-10T05:50:54.394Z,19.43
2019-05-10T05:51:58.223Z,22.03
2019-05-10T05:53:01.905Z,18.67
2019-05-10T05:54:05.836Z,18.50
2019-05-10T05:55:09.890Z,17.33
2019-05-10T05:56:14.662Z,18.77
2019-05-10T05:57:22.118Z,17.97
2019-05-10T05:58:27.014Z,18.00
2019-05-10T05:59:29.511Z,18.83
2019-05-10T06:00:37.789Z,14.83
2019-05-10T06:01:38.838Z,16.50
2019-05-10T06:02:45.122Z,15.40
2019-05-10T06:03:48.131Z,16.30
2019-05-10T06:04:51.973Z,16.17
2019-05-10T06:05:55.673Z,16.53
2019-05-10T06:07:00.603Z,20.53
2019-05-10T06:08:04.540Z,21.03
2019-05-10T06:09:08.621Z,18.57
2019-05-10T06:10:17.290Z,16.20
2019-05-10T06:11:18.446Z,17.63
2019-05-10T06:12:22.386Z,16.23
2019-05-10T06:13:30.189Z,16.30
2019-05-10T06:14:31.626Z,16.63
2019-05-10T06:15:35.504Z,17.13
2019-05-10T06:16:39.164Z,15.83
2019-05-10T06:17:43.061Z,17.90
2019-05-10T06:18:47.799Z,16.80
2019-05-10T06:19:52.276Z,16.53
2019-05-10T06:20:55.922Z,16.93
2019-05-10T06:22:04.673Z,19.83
2019-05-10T06:23:07.275Z,18.77
2019-05-10T06:24:13.310Z,16.60
2019-05-10T06:25:16.723Z,19.63
2019-05-10T06:26:28.059Z,20.23
2019-05-10T06:27:25.909Z,23.27
2019-05-10T06:28:57.073Z,24.23
2019-05-10T06:29:35.599Z,24.77
2019-05-10T06:30:39.422Z,24.73
2019-05-10T06:31:43.150Z,26.67
2019-05-10T06:32:46.944Z,24.07
2019-05-10T06:33:50.584Z,22.73
2019-05-10T06:34:54.438Z,21.40
2019-05-10T06:35:58.100Z,25.90
2019-05-10T06:37:02.061Z,25.23
2019-05-10T06:38:05.670Z,20.10
2019-05-10T06:39:09.619Z,20.07
2019-05-10T06:40:13.436Z,18.40
2019-05-10T06:41:19.232Z,20.47
2019-05-10T06:42:22.697Z,16.23
2019-05-10T06:43:26.641Z,16.10
2019-05-10T06:44:31.125Z,13.53
2019-05-10T06:45:35.957Z,14.97
2019-05-10T06:46:39.776Z,13.13
2019-05-10T06:47:47.676Z,14.83
2019-05-10T06:48:48.907Z,15.60
2019-05-10T06:49:52.800Z,15.53
2019-05-10T06:50:56.446Z,16.10
2019-05-10T06:52:00.320Z,14.03
2019-05-10T06:53:07.747Z,13.67
2019-05-10T06:54:09.519Z,15.67
2019-05-10T06:55:13.714Z,11.57
2019-05-10T06:56:17.547Z,13.90
2019-05-10T06:57:21.410Z,10.73
2019-05-10T06:58:25.369Z,12.87
2019-05-10T06:59:29.020Z,11.63
2019-05-10T07:00:37.930Z,11.70
2019-05-10T07:01:44.888Z,9.63
2019-05-10T07:02:43.827Z,15.20
2019-05-10T07:03:47.820Z,15.43
2019-05-10T07:04:51.681Z,13.93
2019-05-10T07:05:55.361Z,17.10
2019-05-10T07:06:59.183Z,14.27
2019-05-10T07:08:14.016Z,17.50
2019-05-10T07:09:08.951Z,16.80
2019-05-10T07:10:19.013Z,25.50
2019-05-10T07:11:20.130Z,18.80
2019-05-10T07:12:23.872Z,15.13
2019-05-10T07:13:27.698Z,17.80
2019-05-10T07:14:31.466Z,22.83
2019-05-10T07:15:41.514Z,14.53
2019-05-10T07:16:42.839Z,15.50
2019-05-10T07:17:47.325Z,12.97
2019-05-10T07:18:54.962Z,14.67
2019-05-10T07:19:56.825Z,14.40
2019-05-10T07:21:06.194Z,12.63
2019-05-10T07:22:06.395Z,11.93
2019-05-10T07:23:10.058Z,14.00
2019-05-10T07:24:18.489Z,14.67
2019-05-10T07:25:19.350Z,10.87
2019-05-10T07:26:26.424Z,12.53
2019-05-10T07:27:28.602Z,13.37
2019-05-10T07:28:32.427Z,11.20
2019-05-10T07:29:42.724Z,10.17
2019-05-10T07:30:41.947Z,10.27
2019-05-10T07:31:45.676Z,10.53
2019-05-10T07:32:49.500Z,8.10
2019-05-10T07:33:53.200Z,10.90
2019-05-10T07:35:00.839Z,10.30
2019-05-10T07:36:02.499Z,8.87
2019-05-10T07:37:06.599Z,10.40
2019-05-10T07:38:10.254Z,7.53
2019-05-10T07:39:14.071Z,4.80
2019-05-10T07:40:17.865Z,9.10
2019-05-10T07:41:26.376Z,6.90
2019-05-10T07:42:27.086Z,6.73
2019-05-10T07:43:32.138Z,4.60
2019-05-10T07:44:35.866Z,6.97
2019-05-10T07:45:39.761Z,7.53
2019-05-10T07:46:47.006Z,4.67
2019-05-10T07:47:49.499Z,5.00
2019-05-10T07:48:53.944Z,5.20
2019-05-10T07:49:57.849Z,5.13
2019-05-10T07:51:01.605Z,3.83
2019-05-10T07:52:05.509Z,4.50
2019-05-10T07:53:09.213Z,2.97
2019-05-10T07:54:13.018Z,3.10
2019-05-10T07:55:18.564Z,4.63
2019-05-10T07:56:22.280Z,4.53
2019-05-10T07:57:27.117Z,5.23
2019-05-10T07:58:31.140Z,4.87
2019-05-10T07:59:49.416Z,3.97
2019-05-10T08:00:44.443Z,3.47
2019-05-10T08:01:48.987Z,5.27
2019-05-10T08:03:02.426Z,3.37
2019-05-10T08:03:59.059Z,3.63
2019-05-10T08:05:04.859Z,3.53
2019-05-10T08:06:08.347Z,1.80
2019-05-10T08:07:12.468Z,1.97
2019-05-10T08:08:19.000Z,2.37
2019-05-10T08:09:22.049Z,5.77
2019-05-10T08:10:25.803Z,3.23
2019-05-10T08:11:29.643Z,4.53
2019-05-10T08:12:35.125Z,2.83
2019-05-10T08:13:39.486Z,3.73
2019-05-10T08:14:44.488Z,2.57
2019-05-10T08:15:49.092Z,2.67
2019-05-10T08:16:58.560Z,3.23
2019-05-10T08:17:58.733Z,2.63
2019-05-10T08:19:02.808Z,2.53
2019-05-10T08:20:20.331Z,2.47
2019-05-10T08:21:21.856Z,2.63
2019-05-10T08:22:22.835Z,4.50
2019-05-10T08:23:27.953Z,1.90
2019-05-10T08:24:32.810Z,2.93
2019-05-10T08:25:43.819Z,2.37
2019-05-10T08:26:42.691Z,3.87
2019-05-10T08:27:50.555Z,3.37
2019-05-10T08:28:52.692Z,2.70
2019-05-10T08:30:17.884Z,1.97
2019-05-10T08:31:02.611Z,6.50
2019-05-10T08:32:06.592Z,2.37
2019-05-10T08:33:13.537Z,6.03
2019-05-10T08:34:15.922Z,3.10
2019-05-10T08:35:19.775Z,4.17
2019-05-10T08:36:23.619Z,2.63
2019-05-10T08:37:33.449Z,1.40
2019-05-10T08:38:32.812Z,1.32
2019-05-10T08:39:45.303Z,1.87
2019-05-10T08:40:42.948Z,2.27
2019-05-10T08:42:01.269Z,2.50
2019-05-10T08:43:00.160Z,1.95
2019-05-10T08:43:58.381Z,2.75
2019-05-10T08:45:05.395Z,5.22
2019-05-10T08:46:07.552Z,2.77
2019-05-10T08:47:16.129Z,4.12
2019-05-10T08:48:16.778Z,4.25
2019-05-10T08:49:21.966Z,3.20
2019-05-10T08:50:42.561Z,2.27
2019-05-10T08:51:32.277Z,2.87
2019-05-10T08:52:37.549Z,2.58
2019-05-10T08:53:42.155Z,2.45
2019-05-10T08:54:46.268Z,3.20
2019-05-10T08:55:52.306Z,2.12
2019-05-10T08:59:38.707Z,2.52
2019-05-10T09:00:54.349Z,2.42
2019-05-10T09:01:50.830Z,3.65
2019-05-10T09:02:53.379Z,5.42
2019-05-10T09:04:00.868Z,4.42
2019-05-10T09:05:02.784Z,4.65
2019-05-10T09:06:11.793Z,4.05
2019-05-10T09:07:12.399Z,2.25
2019-05-10T09:08:20.199Z,3.45
2019-05-10T09:09:22.767Z,4.00
2019-05-10T09:10:26.789Z,3.52
2019-05-10T09:11:32.665Z,3.55
2019-05-10T09:12:41.768Z,3.60
2019-05-10T09:13:45.743Z,3.15
2019-05-10T09:14:48.890Z,3.27
2019-05-10T09:15:56.659Z,3.35
2019-05-10T09:17:01.759Z,2.77
2019-05-10T09:18:07.221Z,3.02
2019-05-10T09:19:08.756Z,2.02
2019-05-10T09:20:20.919Z,1.70
2019-05-10T09:21:22.527Z,2.55
2019-05-10T09:22:33.774Z,1.92
2019-05-10T09:23:32.719Z,1.87
2019-05-10T09:24:41.083Z,2.40
2019-05-10T09:25:42.792Z,2.62
2019-05-10T09:26:51.617Z,3.58
2019-05-10T09:27:53.114Z,3.33
2019-05-10T09:28:57.822Z,2.37
2019-05-10T09:30:02.915Z,3.62
2019-05-10T09:31:18.929Z,2.30
2019-05-10T09:32:12.682Z,6.90
2019-05-10T09:33:16.407Z,3.05
2019-05-10T09:34:23.869Z,2.35
2019-05-10T09:35:25.684Z,2.75
2019-05-10T09:36:35.368Z,2.72
2019-05-10T09:37:35.063Z,2.75
2019-05-10T09:38:42.967Z,3.67
2019-05-10T09:39:44.479Z,1.32
2019-05-10T09:40:53.025Z,1.95
2019-05-10T09:41:53.713Z,2.42
2019-05-10T09:42:59.371Z,1.50
2019-05-10T09:44:03.184Z,1.67
2019-05-10T09:45:09.679Z,3.22
2019-05-10T09:46:14.151Z,1.27
2019-05-10T09:47:18.163Z,2.05
2019-05-10T09:48:22.860Z,1.67
2019-05-10T09:49:26.978Z,1.17
2019-05-10T09:50:40.814Z,5.97
2019-05-10T09:51:36.158Z,7.10
2019-05-10T09:52:40.824Z,7.55
2019-05-10T09:53:44.720Z,9.90
2019-05-10T09:54:49.605Z,4.00
2019-05-10T09:56:01.669Z,4.08
2019-05-10T09:56:58.963Z,4.67
2019-05-10T09:58:02.811Z,7.95
2019-05-10T09:59:08.197Z,5.70
2019-05-10T10:00:12.788Z,7.15
2019-05-10T10:01:20.731Z,9.60
2019-05-10T10:02:22.110Z,4.70
2019-05-10T10:03:29.619Z,9.37
2019-05-10T10:04:31.425Z,5.03
2019-05-10T10:05:35.060Z,7.83
2019-05-10T10:06:41.894Z,3.72
2019-05-10T10:07:44.339Z,3.65
2019-05-10T10:08:51.819Z,5.27
2019-05-10T10:09:53.655Z,6.05
2019-05-10T10:11:01.086Z,2.00
2019-05-10T10:12:03.412Z,4.53
2019-05-10T10:13:13.186Z,4.20
2019-05-10T10:14:13.259Z,8.60
2019-05-10T10:15:25.254Z,3.22
2019-05-10T10:16:22.441Z,3.40
2019-05-10T10:17:27.886Z,7.10
2019-05-10T10:18:31.719Z,5.17
2019-05-10T10:19:37.565Z,1.82
2019-05-10T10:20:45.004Z,1.87
2019-05-10T10:21:47.630Z,2.30
2019-05-10T10:22:54.510Z,1.20
2019-05-10T10:24:00.286Z,2.75
2019-05-10T10:25:02.749Z,2.25
2019-05-10T10:26:07.318Z,1.72
2019-05-10T10:27:11.073Z,3.70
2019-05-10T10:28:19.958Z,1.85
2019-05-10T10:29:20.360Z,4.10
2019-05-10T10:30:24.460Z,1.85
2019-05-10T10:31:33.164Z,2.02
2019-05-10T10:32:34.902Z,2.80
2019-05-10T10:33:38.954Z,2.12
2019-05-10T10:34:43.342Z,5.47
2019-05-10T10:35:48.103Z,2.70
2019-05-10T10:36:52.314Z,2.77
2019-05-10T10:37:57.371Z,1.70
2019-05-10T10:39:01.722Z,2.80
2019-05-10T10:40:08.657Z,1.72
2019-05-10T10:41:17.199Z,1.70
2019-05-10T10:42:18.321Z,2.55
2019-05-10T10:43:22.228Z,1.22
2019-05-10T10:44:27.076Z,1.27
2019-05-10T10:45:31.068Z,1.32
2019-05-10T10:46:36.632Z,1.30
2019-05-10T10:47:40.484Z,4.17
2019-05-10T10:48:49.169Z,2.75
2019-05-10T10:49:49.778Z,3.75
2019-05-10T10:50:55.686Z,2.42
2019-05-10T10:51:59.259Z,0.80
2019-05-10T10:53:02.918Z,1.33
2019-05-10T10:54:07.474Z,1.03
2019-05-10T10:55:13.428Z,0.83
2019-05-10T10:56:17.778Z,3.17
2019-05-10T10:57:21.528Z,2.73
2019-05-10T10:58:27.485Z,2.10
2019-05-10T10:59:31.136Z,0.80
2019-05-10T11:00:38.982Z,1.60
2019-05-10T11:01:50.033Z,2.20
2019-05-10T11:02:51.927Z,2.73
2019-05-10T11:03:53.054Z,3.63
2019-05-10T11:04:56.880Z,1.30
2019-05-10T11:06:00.668Z,2.43
2019-05-10T11:07:10.346Z,1.73
2019-05-10T11:08:11.160Z,3.33
2019-05-10T11:09:15.136Z,2.73
2019-05-10T11:10:22.395Z,4.20
2019-05-10T11:11:30.480Z,5.80
2019-05-10T11:12:31.593Z,2.35
2019-05-10T11:13:45.741Z,2.77
2019-05-10T11:14:45.287Z,1.12
2019-05-10T11:15:46.812Z,3.30
2019-05-10T11:16:55.465Z,3.05
2019-05-10T11:17:56.624Z,5.70
2019-05-10T11:19:03.809Z,2.62
2019-05-10T11:20:09.279Z,0.95
2019-05-10T11:21:12.672Z,2.85
2019-05-10T11:22:16.531Z,2.87
2019-05-10T11:23:24.480Z,1.27
2019-05-10T11:24:25.851Z,1.00
2019-05-10T11:25:29.568Z,2.45
2019-05-10T11:26:36.863Z,1.45
2019-05-10T11:27:41.419Z,2.00
2019-05-10T11:28:44.656Z,2.90
2019-05-10T11:29:51.908Z,1.42
2019-05-10T11:30:53.822Z,0.60
2019-05-10T11:32:12.340Z,1.50
2019-05-10T11:33:03.435Z,2.17
2019-05-10T11:34:07.191Z,2.08
2019-05-10T11:35:11.908Z,0.42
2019-05-10T11:36:16.818Z,0.40
2019-05-10T11:37:31.165Z,1.95
2019-05-10T11:38:26.282Z,1.95
2019-05-10T11:39:33.176Z,1.67
2019-05-10T11:40:35.431Z,0.50
2019-05-10T11:41:39.253Z,1.87
2019-05-10T11:42:47.296Z,0.57
2019-05-10T11:43:48.535Z,1.37
2019-05-10T11:44:54.611Z,1.12
2019-05-10T11:45:58.293Z,1.17
2019-05-10T11:47:01.923Z,2.67
2019-05-10T11:48:05.727Z,4.08
2019-05-10T11:49:10.623Z,2.42
2019-05-10T11:50:27.835Z,2.60
2019-05-10T11:51:21.178Z,2.12
2019-05-10T11:52:29.039Z,1.67
2019-05-10T11:53:31.601Z,2.33
2019-05-10T11:54:35.548Z,1.05
2019-05-10T11:55:41.159Z,1.00
2019-05-10T11:56:44.939Z,3.22
2019-05-10T11:58:55.661Z,6.53
2019-05-10T11:59:04.539Z,3.95
2019-05-10T11:59:59.363Z,3.15
2019-05-10T12:01:16.404Z,2.03
2019-05-10T12:02:10.452Z,1.40
2019-05-10T12:04:33.076Z,0.80
2019-05-10T12:05:26.820Z,0.75
2019-05-10T12:06:31.957Z,3.33
2019-05-10T12:07:45.398Z,4.23
2019-05-10T12:08:41.986Z,0.57
2019-05-10T12:09:53.288Z,8.03
2019-05-10T12:10:54.429Z,3.37
2019-05-10T12:11:57.189Z,1.12
2019-05-10T12:13:11.284Z,1.37
2019-05-10T12:14:06.383Z,0.78
2019-05-10T12:15:13.761Z,1.35
2019-05-10T12:16:16.992Z,4.83
2019-05-10T12:17:24.053Z,2.27
2019-05-10T12:18:27.191Z,2.00
2019-05-10T12:19:36.750Z,2.60
2019-05-10T12:20:51.052Z,4.72
2019-05-10T12:21:42.035Z,0.68
2019-05-10T12:22:47.726Z,1.52
2019-05-10T12:23:55.982Z,1.77
2019-05-10T12:25:20.602Z,1.85
2019-05-10T12:26:06.158Z,1.07
2019-05-10T12:27:13.913Z,0.95
2019-05-10T12:27:25.304Z,0.70
2019-05-10T12:28:15.340Z,1.65
2019-05-10T12:29:21.262Z,2.20
2019-05-10T12:30:29.554Z,1.98
2019-05-10T12:31:33.027Z,0.65
2019-05-10T12:32:53.546Z,0.80
2019-05-10T12:33:45.299Z,3.40
2019-05-10T12:34:52.021Z,1.90
2019-05-10T12:35:53.802Z,4.30
2019-05-10T12:37:02.574Z,2.27
2019-05-10T12:38:03.134Z,2.92
2019-05-10T12:39:07.983Z,1.25
2019-05-10T12:40:15.155Z,1.02
2019-05-10T12:41:17.628Z,2.60
2019-05-10T12:42:21.914Z,0.72
2019-05-10T12:43:26.081Z,0.80
2019-05-10T12:44:33.147Z,0.75
2019-05-10T12:45:35.684Z,1.95
2019-05-10T12:46:42.117Z,2.25
2019-05-10T12:47:44.846Z,3.02
2019-05-10T12:48:48.771Z,2.20
2019-05-10T12:49:53.802Z,2.05
2019-05-10T12:51:04.684Z,1.57
2019-05-10T12:52:03.576Z,2.67
2019-05-10T12:53:14.371Z,2.20
2019-05-10T12:54:12.805Z,2.62
2019-05-10T12:55:16.693Z,1.17
2019-05-10T12:56:20.372Z,5.05
2019-05-10T12:57:24.295Z,0.60
2019-05-10T12:58:27.977Z,2.75
2019-05-10T12:59:34.887Z,1.05
2019-05-10T13:00:38.712Z,1.72
2019-05-10T13:01:42.611Z,3.50
2019-05-10T13:02:51.109Z,1.22
2019-05-10T13:03:51.808Z,0.80
2019-05-10T13:04:56.145Z,0.70
2019-05-10T13:05:59.990Z,1.82
2019-05-10T13:07:03.625Z,0.93
2019-05-10T13:08:07.537Z,5.05
2019-05-10T13:09:11.697Z,0.60
2019-05-10T13:10:15.859Z,0.80
2019-05-10T13:11:25.601Z,0.88
2019-05-10T13:12:25.229Z,1.00
2019-05-10T13:13:30.017Z,1.92
2019-05-10T13:14:34.303Z,1.72
2019-05-10T13:15:38.563Z,1.60
2019-05-10T13:16:42.873Z,5.72
2019-05-10T13:17:50.504Z,2.72
2019-05-10T13:18:52.675Z,4.05
2019-05-10T13:19:58.492Z,2.58
2019-05-10T13:21:02.431Z,1.10
2019-05-10T13:22:07.420Z,1.87
2019-05-10T13:23:16.153Z,0.70
2019-05-10T13:24:18.497Z,1.70
2019-05-10T13:25:22.365Z,0.70
2019-05-10T13:26:26.397Z,0.88
2019-05-10T13:27:31.117Z,2.10
2019-05-10T13:28:37.804Z,1.00
2019-05-10T13:29:47.051Z,0.60
2019-05-10T13:30:48.605Z,1.07
2019-05-10T13:31:56.397Z,0.70
2019-05-10T13:33:00.253Z,0.95
2019-05-10T13:34:04.374Z,0.97
2019-05-10T13:35:08.441Z,1.67
2019-05-10T13:36:12.361Z,1.07
2019-05-10T13:37:23.375Z,0.93
2019-05-10T13:38:21.671Z,1.72
2019-05-10T13:39:27.597Z,1.57
2019-05-10T13:40:45.302Z,1.22
2019-05-10T13:41:43.251Z,1.17
2019-05-10T13:42:47.087Z,2.60
2019-05-10T13:43:50.885Z,1.27
2019-05-10T13:44:54.704Z,2.58
2019-05-10T13:45:58.450Z,4.03
2019-05-10T13:47:05.095Z,2.05
2019-05-10T13:48:07.844Z,0.95
2019-05-10T13:49:11.851Z,3.80
2019-05-10T13:50:15.580Z,1.85
2019-05-10T13:51:19.479Z,1.37
2019-05-10T13:52:29.798Z,1.00
2019-05-10T13:53:28.737Z,0.85
2019-05-10T13:54:36.077Z,1.65
2019-05-10T13:55:37.932Z,1.70
2019-05-10T13:56:45.160Z,2.67
2019-05-10T13:57:47.583Z,2.58
2019-05-10T13:58:51.236Z,2.77
2019-05-10T13:59:57.305Z,2.65
2019-05-10T14:01:00.554Z,2.33
2019-05-10T14:02:04.476Z,4.08
2019-05-10T14:03:11.612Z,1.65
2019-05-10T14:04:13.967Z,1.90
2019-05-10T14:05:19.873Z,2.65
2019-05-10T14:06:23.297Z,7.50
2019-05-10T14:07:26.991Z,2.20
2019-05-10T14:08:31.781Z,2.37